sensor_id;sensor_type;location;lat;lon;timestamp;P1;durP1;ratioP1;P2;durP2;ratioP2
59649;SDS011;46162;57.568;25.814;2022-08-20T00:00:03;23.50;;;9.48;;
59649;SDS011;46162;57.568;25.814;2022-08-20T00:02:37;23.02;;;9.07;;
59649;SDS011;46162;57.568;25.814;2022-08-20T00:05:07;22.75;;;9.05;;
59649;SDS011;46162;57.568;25.814;2022-08-20T00:07:35;30.77;;;9.18;;
59649;SDS011;46162;57.568;25.814;2022-08-20T00:10:05;21.00;;;9.05;;
59649;SDS011;46162;57.568;25.814;2022-08-20T00:15:05;24.67;;;9.27;;
59649;SDS011;46162;57.568;25.814;2022-08-20T00:17:34;25.52;;;8.43;;
59649;SDS011;46162;57.568;25.814;2022-08-20T00:20:04;19.55;;;8.85;;
59649;SDS011;46162;57.568;25.814;2022-08-20T00:22:36;22.73;;;9.45;;
59649;SDS011;46162;57.568;25.814;2022-08-20T00:25:06;28.20;;;8.70;;
59649;SDS011;46162;57.568;25.814;2022-08-20T00:27:37;24.23;;;8.65;;
59649;SDS011;46162;57.568;25.814;2022-08-20T00:30:08;27.58;;;8.77;;
59649;SDS011;46162;57.568;25.814;2022-08-20T00:32:42;22.17;;;8.93;;
59649;SDS011;46162;57.568;25.814;2022-08-20T00:35:12;27.02;;;10.00;;
59649;SDS011;46162;57.568;25.814;2022-08-20T00:37:41;22.73;;;8.77;;
59649;SDS011;46162;57.568;25.814;2022-08-20T00:40:11;19.15;;;8.15;;
59649;SDS011;46162;57.568;25.814;2022-08-20T00:42:50;19.77;;;8.70;;
59649;SDS011;46162;57.568;25.814;2022-08-20T00:45:22;22.52;;;9.57;;
59649;SDS011;46162;57.568;25.814;2022-08-20T00:47:52;17.30;;;8.45;;
59649;SDS011;46162;57.568;25.814;2022-08-20T00:50:22;24.13;;;8.98;;
59649;SDS011;46162;57.568;25.814;2022-08-20T00:52:54;18.63;;;8.68;;
59649;SDS011;46162;57.568;25.814;2022-08-20T00:55:23;17.65;;;8.48;;
59649;SDS011;46162;57.568;25.814;2022-08-20T00:57:58;22.88;;;8.68;;
59649;SDS011;46162;57.568;25.814;2022-08-20T01:00:33;24.67;;;8.57;;
59649;SDS011;46162;57.568;25.814;2022-08-20T01:03:05;18.77;;;8.38;;
59649;SDS011;46162;57.568;25.814;2022-08-20T01:05:36;33.08;;;9.05;;
59649;SDS011;46162;57.568;25.814;2022-08-20T01:08:05;25.40;;;8.50;;
59649;SDS011;46162;57.568;25.814;2022-08-20T01:10:36;19.77;;;8.40;;
59649;SDS011;46162;57.568;25.814;2022-08-20T01:13:08;19.00;;;8.55;;
59649;SDS011;46162;57.568;25.814;2022-08-20T01:15:42;22.58;;;9.38;;
59649;SDS011;46162;57.568;25.814;2022-08-20T01:18:14;21.17;;;8.82;;
59649;SDS011;46162;57.568;25.814;2022-08-20T01:20:46;19.17;;;9.02;;
59649;SDS011;46162;57.568;25.814;2022-08-20T01:23:20;25.90;;;9.57;;
59649;SDS011;46162;57.568;25.814;2022-08-20T01:25:58;25.23;;;9.05;;
59649;SDS011;46162;57.568;25.814;2022-08-20T01:28:32;19.05;;;9.30;;
59649;SDS011;46162;57.568;25.814;2022-08-20T01:31:06;18.48;;;9.57;;
59649;SDS011;46162;57.568;25.814;2022-08-20T01:33:38;21.83;;;9.02;;
59649;SDS011;46162;57.568;25.814;2022-08-20T01:36:09;26.48;;;8.85;;
59649;SDS011;46162;57.568;25.814;2022-08-20T01:38:39;28.25;;;8.77;;
59649;SDS011;46162;57.568;25.814;2022-08-20T01:41:32;17.55;;;8.10;;
59649;SDS011;46162;57.568;25.814;2022-08-20T01:44:17;21.65;;;8.73;;
59649;SDS011;46162;57.568;25.814;2022-08-20T01:46:51;19.23;;;9.25;;
59649;SDS011;46162;57.568;25.814;2022-08-20T01:49:24;21.17;;;9.60;;
59649;SDS011;46162;57.568;25.814;2022-08-20T01:51:56;22.27;;;9.13;;
59649;SDS011;46162;57.568;25.814;2022-08-20T01:54:27;21.13;;;9.50;;
59649;SDS011;46162;57.568;25.814;2022-08-20T01:57:03;20.75;;;9.50;;
59649;SDS011;46162;57.568;25.814;2022-08-20T01:59:34;25.58;;;8.68;;
59649;SDS011;46162;57.568;25.814;2022-08-20T02:02:02;22.25;;;9.80;;
59649;SDS011;46162;57.568;25.814;2022-08-20T02:04:33;18.02;;;8.88;;
59649;SDS011;46162;57.568;25.814;2022-08-20T02:07:02;18.85;;;9.52;;
59649;SDS011;46162;57.568;25.814;2022-08-20T02:09:34;18.25;;;8.75;;
59649;SDS011;46162;57.568;25.814;2022-08-20T02:12:07;16.67;;;9.25;;
59649;SDS011;46162;57.568;25.814;2022-08-20T02:14:39;25.35;;;8.98;;
59649;SDS011;46162;57.568;25.814;2022-08-20T02:17:09;21.50;;;9.25;;
59649;SDS011;46162;57.568;25.814;2022-08-20T02:19:43;23.25;;;9.32;;
59649;SDS011;46162;57.568;25.814;2022-08-20T02:22:17;17.02;;;8.90;;
59649;SDS011;46162;57.568;25.814;2022-08-20T02:24:49;19.33;;;8.35;;
59649;SDS011;46162;57.568;25.814;2022-08-20T02:27:19;20.25;;;8.57;;
59649;SDS011;46162;57.568;25.814;2022-08-20T02:29:49;19.27;;;9.07;;
59649;SDS011;46162;57.568;25.814;2022-08-20T02:32:18;18.27;;;9.02;;
59649;SDS011;46162;57.568;25.814;2022-08-20T02:37:29;17.38;;;8.80;;
59649;SDS011;46162;57.568;25.814;2022-08-20T02:39:57;15.60;;;8.70;;
59649;SDS011;46162;57.568;25.814;2022-08-20T02:42:28;19.45;;;9.07;;
59649;SDS011;46162;57.568;25.814;2022-08-20T02:44:56;20.00;;;8.57;;
59649;SDS011;46162;57.568;25.814;2022-08-20T02:47:25;16.85;;;8.27;;
59649;SDS011;46162;57.568;25.814;2022-08-20T02:49:54;16.77;;;8.27;;
59649;SDS011;46162;57.568;25.814;2022-08-20T02:52:25;20.00;;;8.65;;
59649;SDS011;46162;57.568;25.814;2022-08-20T02:54:54;16.80;;;9.00;;
59649;SDS011;46162;57.568;25.814;2022-08-20T02:57:23;17.73;;;9.13;;
59649;SDS011;46162;57.568;25.814;2022-08-20T02:59:53;17.30;;;9.40;;
59649;SDS011;46162;57.568;25.814;2022-08-20T03:02:22;27.23;;;10.18;;
59649;SDS011;46162;57.568;25.814;2022-08-20T03:04:51;17.75;;;9.88;;
59649;SDS011;46162;57.568;25.814;2022-08-20T03:07:19;21.15;;;9.23;;
59649;SDS011;46162;57.568;25.814;2022-08-20T03:09:48;23.38;;;9.55;;
59649;SDS011;46162;57.568;25.814;2022-08-20T03:12:17;21.55;;;9.43;;
59649;SDS011;46162;57.568;25.814;2022-08-20T03:14:46;16.33;;;8.20;;
59649;SDS011;46162;57.568;25.814;2022-08-20T03:17:16;17.25;;;8.98;;
59649;SDS011;46162;57.568;25.814;2022-08-20T03:19:45;18.63;;;8.65;;
59649;SDS011;46162;57.568;25.814;2022-08-20T03:22:13;16.35;;;9.30;;
59649;SDS011;46162;57.568;25.814;2022-08-20T03:24:42;20.27;;;9.60;;
59649;SDS011;46162;57.568;25.814;2022-08-20T03:27:11;17.75;;;8.85;;
59649;SDS011;46162;57.568;25.814;2022-08-20T03:29:40;17.55;;;8.88;;
59649;SDS011;46162;57.568;25.814;2022-08-20T03:32:09;15.90;;;8.85;;
59649;SDS011;46162;57.568;25.814;2022-08-20T03:34:39;18.48;;;8.95;;
59649;SDS011;46162;57.568;25.814;2022-08-20T03:37:08;15.53;;;8.97;;
59649;SDS011;46162;57.568;25.814;2022-08-20T03:39:37;13.07;;;8.93;;
59649;SDS011;46162;57.568;25.814;2022-08-20T03:42:06;18.23;;;8.75;;
59649;SDS011;46162;57.568;25.814;2022-08-20T03:44:35;17.35;;;9.15;;
59649;SDS011;46162;57.568;25.814;2022-08-20T03:47:04;15.98;;;8.63;;
59649;SDS011;46162;57.568;25.814;2022-08-20T03:49:35;22.20;;;8.90;;
59649;SDS011;46162;57.568;25.814;2022-08-20T03:52:05;18.55;;;8.52;;
59649;SDS011;46162;57.568;25.814;2022-08-20T03:54:34;19.48;;;8.65;;
59649;SDS011;46162;57.568;25.814;2022-08-20T03:57:03;20.92;;;9.18;;
59649;SDS011;46162;57.568;25.814;2022-08-20T03:59:38;16.65;;;8.18;;
59649;SDS011;46162;57.568;25.814;2022-08-20T04:02:07;22.13;;;8.93;;
59649;SDS011;46162;57.568;25.814;2022-08-20T04:04:37;16.83;;;8.52;;
59649;SDS011;46162;57.568;25.814;2022-08-20T04:07:11;19.10;;;8.25;;
59649;SDS011;46162;57.568;25.814;2022-08-20T04:09:42;17.52;;;8.55;;
59649;SDS011;46162;57.568;25.814;2022-08-20T04:12:10;23.27;;;8.35;;
59649;SDS011;46162;57.568;25.814;2022-08-20T04:14:40;15.55;;;8.60;;
59649;SDS011;46162;57.568;25.814;2022-08-20T04:17:10;17.20;;;8.52;;
59649;SDS011;46162;57.568;25.814;2022-08-20T04:19:40;14.15;;;7.90;;
59649;SDS011;46162;57.568;25.814;2022-08-20T04:22:11;14.57;;;7.47;;
59649;SDS011;46162;57.568;25.814;2022-08-20T04:24:40;15.40;;;7.32;;
59649;SDS011;46162;57.568;25.814;2022-08-20T04:27:10;12.13;;;7.03;;
59649;SDS011;46162;57.568;25.814;2022-08-20T04:29:40;13.93;;;7.32;;
59649;SDS011;46162;57.568;25.814;2022-08-20T04:32:10;16.98;;;7.88;;
59649;SDS011;46162;57.568;25.814;2022-08-20T04:34:43;14.88;;;7.30;;
59649;SDS011;46162;57.568;25.814;2022-08-20T04:37:14;14.45;;;7.47;;
59649;SDS011;46162;57.568;25.814;2022-08-20T04:39:47;14.38;;;7.35;;
59649;SDS011;46162;57.568;25.814;2022-08-20T04:42:37;18.08;;;7.53;;
59649;SDS011;46162;57.568;25.814;2022-08-20T04:45:05;14.07;;;7.35;;
59649;SDS011;46162;57.568;25.814;2022-08-20T04:47:35;12.15;;;7.65;;
59649;SDS011;46162;57.568;25.814;2022-08-20T04:50:06;14.00;;;7.53;;
59649;SDS011;46162;57.568;25.814;2022-08-20T04:52:37;16.95;;;7.25;;
59649;SDS011;46162;57.568;25.814;2022-08-20T04:55:06;10.85;;;6.57;;
59649;SDS011;46162;57.568;25.814;2022-08-20T04:57:36;14.50;;;7.35;;
59649;SDS011;46162;57.568;25.814;2022-08-20T05:00:06;16.00;;;7.43;;
59649;SDS011;46162;57.568;25.814;2022-08-20T05:02:38;15.15;;;7.03;;
59649;SDS011;46162;57.568;25.814;2022-08-20T05:05:07;13.10;;;6.75;;
59649;SDS011;46162;57.568;25.814;2022-08-20T05:07:39;14.15;;;6.80;;
59649;SDS011;46162;57.568;25.814;2022-08-20T05:10:09;13.48;;;6.60;;
59649;SDS011;46162;57.568;25.814;2022-08-20T05:12:39;15.40;;;6.35;;
59649;SDS011;46162;57.568;25.814;2022-08-20T05:15:22;11.65;;;6.82;;
59649;SDS011;46162;57.568;25.814;2022-08-20T05:17:53;19.85;;;7.00;;
59649;SDS011;46162;57.568;25.814;2022-08-20T05:20:23;11.43;;;6.18;;
59649;SDS011;46162;57.568;25.814;2022-08-20T05:22:59;13.15;;;6.20;;
59649;SDS011;46162;57.568;25.814;2022-08-20T05:25:29;14.07;;;6.90;;
59649;SDS011;46162;57.568;25.814;2022-08-20T05:27:58;17.27;;;7.03;;
59649;SDS011;46162;57.568;25.814;2022-08-20T05:30:28;16.45;;;7.13;;
59649;SDS011;46162;57.568;25.814;2022-08-20T05:33:01;20.42;;;7.43;;
59649;SDS011;46162;57.568;25.814;2022-08-20T05:35:31;11.65;;;6.28;;
59649;SDS011;46162;57.568;25.814;2022-08-20T05:38:06;14.93;;;6.97;;
59649;SDS011;46162;57.568;25.814;2022-08-20T05:40:37;15.15;;;6.45;;
59649;SDS011;46162;57.568;25.814;2022-08-20T05:43:07;10.82;;;6.40;;
59649;SDS011;46162;57.568;25.814;2022-08-20T05:45:37;11.45;;;6.55;;
59649;SDS011;46162;57.568;25.814;2022-08-20T05:48:07;20.80;;;7.10;;
59649;SDS011;46162;57.568;25.814;2022-08-20T05:50:41;14.70;;;6.45;;
59649;SDS011;46162;57.568;25.814;2022-08-20T05:53:12;12.70;;;5.70;;
59649;SDS011;46162;57.568;25.814;2022-08-20T05:55:41;13.63;;;6.95;;
59649;SDS011;46162;57.568;25.814;2022-08-20T05:58:15;16.00;;;6.22;;
59649;SDS011;46162;57.568;25.814;2022-08-20T06:00:46;18.13;;;6.65;;
59649;SDS011;46162;57.568;25.814;2022-08-20T06:03:16;15.88;;;5.82;;
59649;SDS011;46162;57.568;25.814;2022-08-20T06:06:02;20.17;;;6.00;;
59649;SDS011;46162;57.568;25.814;2022-08-20T06:08:53;14.10;;;5.80;;
59649;SDS011;46162;57.568;25.814;2022-08-20T06:11:22;14.75;;;5.70;;
59649;SDS011;46162;57.568;25.814;2022-08-20T06:13:50;13.60;;;5.60;;
59649;SDS011;46162;57.568;25.814;2022-08-20T06:16:19;15.82;;;6.45;;
59649;SDS011;46162;57.568;25.814;2022-08-20T06:18:54;12.85;;;5.43;;
59649;SDS011;46162;57.568;25.814;2022-08-20T06:21:23;16.90;;;6.00;;
59649;SDS011;46162;57.568;25.814;2022-08-20T06:23:54;15.98;;;5.57;;
59649;SDS011;46162;57.568;25.814;2022-08-20T06:26:26;15.52;;;5.90;;
59649;SDS011;46162;57.568;25.814;2022-08-20T06:28:56;17.55;;;6.05;;
59649;SDS011;46162;57.568;25.814;2022-08-20T06:31:25;19.35;;;5.68;;
59649;SDS011;46162;57.568;25.814;2022-08-20T06:33:54;13.85;;;5.95;;
59649;SDS011;46162;57.568;25.814;2022-08-20T06:36:23;15.57;;;5.75;;
59649;SDS011;46162;57.568;25.814;2022-08-20T06:38:52;12.70;;;5.22;;
59649;SDS011;46162;57.568;25.814;2022-08-20T06:41:24;12.68;;;5.45;;
59649;SDS011;46162;57.568;25.814;2022-08-20T06:44:02;18.27;;;5.90;;
59649;SDS011;46162;57.568;25.814;2022-08-20T06:46:32;24.23;;;5.60;;
59649;SDS011;46162;57.568;25.814;2022-08-20T06:49:02;14.68;;;5.70;;
59649;SDS011;46162;57.568;25.814;2022-08-20T06:51:31;15.00;;;5.75;;
59649;SDS011;46162;57.568;25.814;2022-08-20T06:54:02;13.40;;;5.80;;
59649;SDS011;46162;57.568;25.814;2022-08-20T06:56:32;11.80;;;5.70;;
59649;SDS011;46162;57.568;25.814;2022-08-20T06:59:01;14.88;;;5.65;;
59649;SDS011;46162;57.568;25.814;2022-08-20T07:01:30;17.10;;;5.53;;
59649;SDS011;46162;57.568;25.814;2022-08-20T07:03:59;13.50;;;5.22;;
59649;SDS011;46162;57.568;25.814;2022-08-20T07:06:27;14.55;;;5.40;;
59649;SDS011;46162;57.568;25.814;2022-08-20T07:08:56;15.38;;;6.03;;
59649;SDS011;46162;57.568;25.814;2022-08-20T07:11:27;15.80;;;5.80;;
59649;SDS011;46162;57.568;25.814;2022-08-20T07:13:56;17.20;;;6.03;;
59649;SDS011;46162;57.568;25.814;2022-08-20T07:16:25;14.95;;;5.90;;
59649;SDS011;46162;57.568;25.814;2022-08-20T07:18:54;13.30;;;5.88;;
59649;SDS011;46162;57.568;25.814;2022-08-20T07:21:24;13.52;;;5.53;;
59649;SDS011;46162;57.568;25.814;2022-08-20T07:23:52;18.20;;;5.75;;
59649;SDS011;46162;57.568;25.814;2022-08-20T07:26:21;22.77;;;6.22;;
59649;SDS011;46162;57.568;25.814;2022-08-20T07:28:52;17.90;;;5.93;;
59649;SDS011;46162;57.568;25.814;2022-08-20T07:31:20;15.82;;;6.43;;
59649;SDS011;46162;57.568;25.814;2022-08-20T07:34:07;16.10;;;6.40;;
59649;SDS011;46162;57.568;25.814;2022-08-20T07:36:37;15.90;;;5.97;;
59649;SDS011;46162;57.568;25.814;2022-08-20T07:39:06;15.55;;;6.20;;
59649;SDS011;46162;57.568;25.814;2022-08-20T07:41:35;17.20;;;6.38;;
59649;SDS011;46162;57.568;25.814;2022-08-20T07:44:05;25.10;;;6.60;;
59649;SDS011;46162;57.568;25.814;2022-08-20T07:46:34;19.05;;;6.95;;
59649;SDS011;46162;57.568;25.814;2022-08-20T07:49:02;17.42;;;6.72;;
59649;SDS011;46162;57.568;25.814;2022-08-20T07:51:35;17.17;;;6.57;;
59649;SDS011;46162;57.568;25.814;2022-08-20T07:54:04;12.90;;;7.00;;
59649;SDS011;46162;57.568;25.814;2022-08-20T07:56:33;23.00;;;6.63;;
59649;SDS011;46162;57.568;25.814;2022-08-20T07:59:02;15.00;;;6.70;;
59649;SDS011;46162;57.568;25.814;2022-08-20T08:01:34;16.92;;;7.20;;
59649;SDS011;46162;57.568;25.814;2022-08-20T08:04:03;20.15;;;7.22;;
59649;SDS011;46162;57.568;25.814;2022-08-20T08:06:32;17.17;;;7.10;;
59649;SDS011;46162;57.568;25.814;2022-08-20T08:09:02;13.13;;;6.13;;
59649;SDS011;46162;57.568;25.814;2022-08-20T08:11:34;16.08;;;6.50;;
59649;SDS011;46162;57.568;25.814;2022-08-20T08:14:05;36.60;;;7.35;;
59649;SDS011;46162;57.568;25.814;2022-08-20T08:16:38;18.65;;;6.63;;
59649;SDS011;46162;57.568;25.814;2022-08-20T08:19:11;38.63;;;6.75;;
59649;SDS011;46162;57.568;25.814;2022-08-20T08:21:44;28.20;;;6.25;;
59649;SDS011;46162;57.568;25.814;2022-08-20T08:24:13;19.55;;;6.20;;
59649;SDS011;46162;57.568;25.814;2022-08-20T08:26:48;22.67;;;6.30;;
59649;SDS011;46162;57.568;25.814;2022-08-20T08:29:18;16.73;;;5.72;;
59649;SDS011;46162;57.568;25.814;2022-08-20T08:31:49;11.98;;;5.25;;
59649;SDS011;46162;57.568;25.814;2022-08-20T08:34:17;17.30;;;4.70;;
59649;SDS011;46162;57.568;25.814;2022-08-20T08:36:46;17.17;;;4.93;;
59649;SDS011;46162;57.568;25.814;2022-08-20T08:39:16;10.60;;;3.88;;
59649;SDS011;46162;57.568;25.814;2022-08-20T08:41:46;14.43;;;3.80;;
59649;SDS011;46162;57.568;25.814;2022-08-20T08:44:17;8.70;;;3.33;;
59649;SDS011;46162;57.568;25.814;2022-08-20T08:46:51;13.45;;;3.60;;
59649;SDS011;46162;57.568;25.814;2022-08-20T08:49:24;13.90;;;3.78;;
59649;SDS011;46162;57.568;25.814;2022-08-20T08:52:05;8.50;;;2.80;;
59649;SDS011;46162;57.568;25.814;2022-08-20T08:54:37;11.63;;;2.83;;
59649;SDS011;46162;57.568;25.814;2022-08-20T08:57:10;12.75;;;2.78;;
59649;SDS011;46162;57.568;25.814;2022-08-20T08:59:38;17.52;;;3.17;;
59649;SDS011;46162;57.568;25.814;2022-08-20T09:02:26;9.68;;;3.05;;
59649;SDS011;46162;57.568;25.814;2022-08-20T09:04:57;9.73;;;3.53;;
59649;SDS011;46162;57.568;25.814;2022-08-20T09:07:29;8.95;;;2.60;;
59649;SDS011;46162;57.568;25.814;2022-08-20T09:10:00;14.55;;;3.40;;
59649;SDS011;46162;57.568;25.814;2022-08-20T09:12:29;12.40;;;3.42;;
59649;SDS011;46162;57.568;25.814;2022-08-20T09:14:58;10.02;;;3.30;;
59649;SDS011;46162;57.568;25.814;2022-08-20T09:17:28;8.05;;;3.13;;
59649;SDS011;46162;57.568;25.814;2022-08-20T09:19:57;10.85;;;2.80;;
59649;SDS011;46162;57.568;25.814;2022-08-20T09:22:26;9.82;;;3.10;;
59649;SDS011;46162;57.568;25.814;2022-08-20T09:24:55;12.13;;;3.10;;
59649;SDS011;46162;57.568;25.814;2022-08-20T09:27:24;8.60;;;2.60;;
59649;SDS011;46162;57.568;25.814;2022-08-20T09:29:53;8.68;;;2.30;;
59649;SDS011;46162;57.568;25.814;2022-08-20T09:32:22;8.80;;;2.38;;
59649;SDS011;46162;57.568;25.814;2022-08-20T09:34:53;17.55;;;3.10;;
59649;SDS011;46162;57.568;25.814;2022-08-20T09:37:24;9.85;;;2.97;;
59649;SDS011;46162;57.568;25.814;2022-08-20T09:40:00;16.77;;;3.58;;
59649;SDS011;46162;57.568;25.814;2022-08-20T09:42:32;11.23;;;2.72;;
59649;SDS011;46162;57.568;25.814;2022-08-20T09:45:07;12.55;;;2.58;;
59649;SDS011;46162;57.568;25.814;2022-08-20T09:47:38;8.38;;;2.50;;
59649;SDS011;46162;57.568;25.814;2022-08-20T09:50:24;10.93;;;2.65;;
59649;SDS011;46162;57.568;25.814;2022-08-20T09:52:54;8.32;;;2.78;;
59649;SDS011;46162;57.568;25.814;2022-08-20T09:57:55;7.97;;;2.67;;
59649;SDS011;46162;57.568;25.814;2022-08-20T10:00:24;10.30;;;3.13;;
59649;SDS011;46162;57.568;25.814;2022-08-20T10:02:52;10.88;;;3.15;;
59649;SDS011;46162;57.568;25.814;2022-08-20T10:05:21;12.82;;;3.90;;
59649;SDS011;46162;57.568;25.814;2022-08-20T10:07:53;15.38;;;3.80;;
59649;SDS011;46162;57.568;25.814;2022-08-20T10:10:22;12.25;;;3.95;;
59649;SDS011;46162;57.568;25.814;2022-08-20T10:12:50;11.65;;;3.25;;
59649;SDS011;46162;57.568;25.814;2022-08-20T10:15:20;10.02;;;3.17;;
59649;SDS011;46162;57.568;25.814;2022-08-20T10:17:49;8.73;;;3.22;;
59649;SDS011;46162;57.568;25.814;2022-08-20T10:20:18;10.45;;;3.05;;
59649;SDS011;46162;57.568;25.814;2022-08-20T10:22:46;10.43;;;3.10;;
59649;SDS011;46162;57.568;25.814;2022-08-20T10:25:16;9.68;;;2.47;;
59649;SDS011;46162;57.568;25.814;2022-08-20T10:27:45;13.30;;;2.47;;
59649;SDS011;46162;57.568;25.814;2022-08-20T10:30:14;17.55;;;3.10;;
59649;SDS011;46162;57.568;25.814;2022-08-20T10:32:42;17.95;;;3.15;;
59649;SDS011;46162;57.568;25.814;2022-08-20T10:35:11;10.70;;;2.90;;
59649;SDS011;46162;57.568;25.814;2022-08-20T10:37:40;8.05;;;2.97;;
59649;SDS011;46162;57.568;25.814;2022-08-20T10:40:09;10.73;;;2.80;;
59649;SDS011;46162;57.568;25.814;2022-08-20T10:42:41;16.85;;;3.40;;
59649;SDS011;46162;57.568;25.814;2022-08-20T10:45:10;11.68;;;2.80;;
59649;SDS011;46162;57.568;25.814;2022-08-20T10:47:41;9.73;;;3.30;;
59649;SDS011;46162;57.568;25.814;2022-08-20T10:50:11;13.75;;;2.90;;
59649;SDS011;46162;57.568;25.814;2022-08-20T10:52:41;19.73;;;3.20;;
59649;SDS011;46162;57.568;25.814;2022-08-20T10:55:10;12.93;;;2.97;;
59649;SDS011;46162;57.568;25.814;2022-08-20T10:57:40;9.50;;;3.17;;
59649;SDS011;46162;57.568;25.814;2022-08-20T11:02:40;8.43;;;3.47;;
59649;SDS011;46162;57.568;25.814;2022-08-20T11:05:09;11.82;;;3.58;;
59649;SDS011;46162;57.568;25.814;2022-08-20T11:07:38;11.05;;;2.92;;
59649;SDS011;46162;57.568;25.814;2022-08-20T11:10:23;12.68;;;3.05;;
59649;SDS011;46162;57.568;25.814;2022-08-20T11:12:54;12.00;;;2.78;;
59649;SDS011;46162;57.568;25.814;2022-08-20T11:15:23;13.73;;;3.00;;
59649;SDS011;46162;57.568;25.814;2022-08-20T11:17:52;15.43;;;3.08;;
59649;SDS011;46162;57.568;25.814;2022-08-20T11:20:22;12.30;;;3.33;;
59649;SDS011;46162;57.568;25.814;2022-08-20T11:22:52;10.88;;;3.30;;
59649;SDS011;46162;57.568;25.814;2022-08-20T11:25:21;11.77;;;2.80;;
59649;SDS011;46162;57.568;25.814;2022-08-20T11:27:50;15.82;;;3.17;;
59649;SDS011;46162;57.568;25.814;2022-08-20T11:30:22;10.52;;;2.85;;
59649;SDS011;46162;57.568;25.814;2022-08-20T11:32:51;9.80;;;2.45;;
59649;SDS011;46162;57.568;25.814;2022-08-20T11:35:21;10.18;;;2.55;;
59649;SDS011;46162;57.568;25.814;2022-08-20T11:38:10;8.68;;;2.60;;
59649;SDS011;46162;57.568;25.814;2022-08-20T11:40:39;6.70;;;2.67;;
59649;SDS011;46162;57.568;25.814;2022-08-20T11:43:08;11.45;;;2.97;;
59649;SDS011;46162;57.568;25.814;2022-08-20T11:45:42;13.02;;;2.80;;
59649;SDS011;46162;57.568;25.814;2022-08-20T11:48:12;6.95;;;2.60;;
59649;SDS011;46162;57.568;25.814;2022-08-20T11:50:40;9.57;;;3.13;;
59649;SDS011;46162;57.568;25.814;2022-08-20T11:53:09;12.52;;;2.97;;
59649;SDS011;46162;57.568;25.814;2022-08-20T11:55:40;22.42;;;4.10;;
59649;SDS011;46162;57.568;25.814;2022-08-20T11:58:10;20.83;;;3.60;;
59649;SDS011;46162;57.568;25.814;2022-08-20T12:00:38;14.02;;;3.47;;
59649;SDS011;46162;57.568;25.814;2022-08-20T12:03:09;10.52;;;3.15;;
59649;SDS011;46162;57.568;25.814;2022-08-20T12:05:38;10.98;;;3.63;;
59649;SDS011;46162;57.568;25.814;2022-08-20T12:08:09;12.98;;;4.28;;
59649;SDS011;46162;57.568;25.814;2022-08-20T12:10:55;14.52;;;3.67;;
59649;SDS011;46162;57.568;25.814;2022-08-20T12:13:25;19.17;;;4.53;;
59649;SDS011;46162;57.568;25.814;2022-08-20T12:16:14;12.13;;;3.55;;
59649;SDS011;46162;57.568;25.814;2022-08-20T12:18:45;13.00;;;3.80;;
59649;SDS011;46162;57.568;25.814;2022-08-20T12:21:14;13.82;;;3.40;;
59649;SDS011;46162;57.568;25.814;2022-08-20T12:23:43;15.23;;;4.07;;
59649;SDS011;46162;57.568;25.814;2022-08-20T12:26:12;18.67;;;4.07;;
59649;SDS011;46162;57.568;25.814;2022-08-20T12:28:42;19.60;;;4.13;;
59649;SDS011;46162;57.568;25.814;2022-08-20T12:31:11;8.05;;;3.47;;
59649;SDS011;46162;57.568;25.814;2022-08-20T12:33:39;12.85;;;4.00;;
59649;SDS011;46162;57.568;25.814;2022-08-20T12:36:09;8.80;;;3.40;;
59649;SDS011;46162;57.568;25.814;2022-08-20T12:38:38;10.85;;;3.30;;
59649;SDS011;46162;57.568;25.814;2022-08-20T12:41:07;12.60;;;3.85;;
59649;SDS011;46162;57.568;25.814;2022-08-20T12:43:35;7.07;;;3.00;;
59649;SDS011;46162;57.568;25.814;2022-08-20T12:46:04;12.88;;;3.08;;
59649;SDS011;46162;57.568;25.814;2022-08-20T12:48:33;15.82;;;3.28;;
59649;SDS011;46162;57.568;25.814;2022-08-20T12:51:02;15.30;;;3.70;;
59649;SDS011;46162;57.568;25.814;2022-08-20T12:53:32;13.23;;;3.58;;
59649;SDS011;46162;57.568;25.814;2022-08-20T12:56:02;20.15;;;3.63;;
59649;SDS011;46162;57.568;25.814;2022-08-20T12:58:31;9.02;;;3.50;;
59649;SDS011;46162;57.568;25.814;2022-08-20T13:01:00;8.77;;;3.25;;
59649;SDS011;46162;57.568;25.814;2022-08-20T13:03:29;14.63;;;3.63;;
59649;SDS011;46162;57.568;25.814;2022-08-20T13:05:59;15.98;;;2.80;;
59649;SDS011;46162;57.568;25.814;2022-08-20T13:10:58;13.40;;;3.72;;
59649;SDS011;46162;57.568;25.814;2022-08-20T13:13:27;21.92;;;3.50;;
59649;SDS011;46162;57.568;25.814;2022-08-20T13:15:55;22.55;;;4.15;;
59649;SDS011;46162;57.568;25.814;2022-08-20T13:18:24;24.13;;;3.50;;
59649;SDS011;46162;57.568;25.814;2022-08-20T13:20:52;18.92;;;4.43;;
59649;SDS011;46162;57.568;25.814;2022-08-20T13:23:21;18.58;;;3.88;;
59649;SDS011;46162;57.568;25.814;2022-08-20T13:25:50;18.20;;;3.45;;
59649;SDS011;46162;57.568;25.814;2022-08-20T13:28:20;17.70;;;3.22;;
59649;SDS011;46162;57.568;25.814;2022-08-20T13:30:49;16.33;;;3.38;;
59649;SDS011;46162;57.568;25.814;2022-08-20T13:33:18;17.20;;;3.50;;
59649;SDS011;46162;57.568;25.814;2022-08-20T13:35:46;13.88;;;3.75;;
59649;SDS011;46162;57.568;25.814;2022-08-20T13:38:15;17.50;;;3.17;;
59649;SDS011;46162;57.568;25.814;2022-08-20T13:40:44;18.08;;;3.90;;
59649;SDS011;46162;57.568;25.814;2022-08-20T13:43:14;20.80;;;4.15;;
59649;SDS011;46162;57.568;25.814;2022-08-20T13:45:45;25.38;;;3.63;;
59649;SDS011;46162;57.568;25.814;2022-08-20T13:48:13;18.23;;;3.80;;
59649;SDS011;46162;57.568;25.814;2022-08-20T13:50:42;25.23;;;4.35;;
59649;SDS011;46162;57.568;25.814;2022-08-20T13:53:12;24.13;;;8.00;;
59649;SDS011;46162;57.568;25.814;2022-08-20T13:55:41;23.75;;;4.03;;
59649;SDS011;46162;57.568;25.814;2022-08-20T13:58:11;17.70;;;3.70;;
59649;SDS011;46162;57.568;25.814;2022-08-20T14:00:39;24.17;;;3.95;;
59649;SDS011;46162;57.568;25.814;2022-08-20T14:03:10;25.35;;;3.60;;
59649;SDS011;46162;57.568;25.814;2022-08-20T14:05:45;22.83;;;3.55;;
59649;SDS011;46162;57.568;25.814;2022-08-20T14:08:16;17.13;;;3.47;;
59649;SDS011;46162;57.568;25.814;2022-08-20T14:10:46;26.80;;;3.92;;
59649;SDS011;46162;57.568;25.814;2022-08-20T14:13:17;26.48;;;3.53;;
59649;SDS011;46162;57.568;25.814;2022-08-20T14:15:47;28.95;;;3.70;;
59649;SDS011;46162;57.568;25.814;2022-08-20T14:18:18;22.05;;;3.80;;
59649;SDS011;46162;57.568;25.814;2022-08-20T14:20:47;42.92;;;4.22;;
59649;SDS011;46162;57.568;25.814;2022-08-20T14:23:16;27.85;;;3.78;;
59649;SDS011;46162;57.568;25.814;2022-08-20T14:25:45;22.35;;;3.47;;
59649;SDS011;46162;57.568;25.814;2022-08-20T14:28:16;23.25;;;4.03;;
59649;SDS011;46162;57.568;25.814;2022-08-20T14:30:47;25.73;;;3.33;;
59649;SDS011;46162;57.568;25.814;2022-08-20T14:33:21;28.67;;;4.25;;
59649;SDS011;46162;57.568;25.814;2022-08-20T14:35:50;21.20;;;3.58;;
59649;SDS011;46162;57.568;25.814;2022-08-20T14:38:19;28.27;;;4.20;;
59649;SDS011;46162;57.568;25.814;2022-08-20T14:40:48;26.98;;;3.75;;
59649;SDS011;46162;57.568;25.814;2022-08-20T14:43:17;27.20;;;3.25;;
59649;SDS011;46162;57.568;25.814;2022-08-20T14:45:46;34.65;;;3.38;;
59649;SDS011;46162;57.568;25.814;2022-08-20T14:48:15;27.08;;;3.80;;
59649;SDS011;46162;57.568;25.814;2022-08-20T14:50:45;25.00;;;3.35;;
59649;SDS011;46162;57.568;25.814;2022-08-20T14:53:14;22.23;;;3.40;;
59649;SDS011;46162;57.568;25.814;2022-08-20T14:55:43;28.17;;;3.95;;